Eastern Sierra Regional Airport
KBIH : now visible

Airfield :











YOU CAN JOIN US ON...

 
LOGIN :

Register | Disclaimer

   EN    FR    IT 

 









Legend :    VFR   Marginal VFR   IFR   Intensive IFR   Very Intensive IFR
Visi :
Ceiling :
>= 8 km
>= 3000ft
5 to 8 km
1000 to 3000 ft
1500m to 5 km
500 to 1000 ft
800 to 1500m
200 to 500 ft
< 800m
< 200 ft
Symbols :   Thunderstorms  Fog  Heavy snow  Heavy precipitations  Wind > 20 kt






- Airport Elevation : 4124 ft


KBIH - Eastern Sierra Regional

CURRENT METAR :
  • 291256Z AUTO 36015G24KT 10SM CLR 05/M08 A3019 RMK AO2 PK WND 35026/1241 SLP207 T00501078

EXPIRED METARs :
  • 291156Z AUTO 35017G25KT 10SM CLR 04/M09 A3018 RMK AO2 PK WND 36027/1108 SLP199 T00441089 10078 20006 50007
  • 291056Z AUTO 34018G23KT 10SM CLR 04/M10 A3018 RMK AO2 SLP201 T00441100

TAF KBIH
Valid from the 29 at 12:00 until the 30 at 12:00 UTC


291132Z 2912/3012 35015G25KT P6SM SCT200
FM291600 01019G28KT P6SM SCT250
FM300400 35011KT P6SM BKN250



MET'MAP, your aeronautical weather chart ! - Copyright ORBIFLY December 2007 - Disclaimer

ORBIFLY MET'MAP TEAM :

Programming & Development : Alexandra Zaïnal
Concept & original design : Baudouin d'Aumeries
Assistance for programming : Marc-Olivier Méhu
Technical & hardware support : Manuel Goepfert

Contact : metmap@orbifly.com




SOURCES & CREDITS :

   NOAA       Earth
Advisory